Airfield :
LOGIN :

Register | Disclaimer

   EN    FR    IT 

 










Legend :    VFR   Marginal VFR   IFR   Intensive IFR   Very Intensive IFR
Visi :
Ceiling :
>= 8 km
>= 3000ft
5 to 8 km
1000 to 3000 ft
1500m to 5 km
500 to 1000 ft
800 to 1500m
200 to 500 ft
< 800m
< 200 ft
Symbols :   Thunderstorms  Fog  Heavy snow  Heavy precipitations  Wind > 20 kt
SIGMETs :     Misc.  Thunderstorms  Icing  Turbulence  Mountain Waves  Volcanic Ashes






- Airport Elevation : 16 ft
- IATA code : SDR


LEXJ - Santander Cantabria

CURRENT METAR :
  • 222300Z AUTO 33007KT 280V030 2100 RA BR SCT027 BKN032 BKN042 15/13 Q1022

EXPIRED METARs :
  • 222230Z AUTO 33008KT 290V010 9000 3000E RA SCT021 BKN031 BKN043 15/14 Q1022
  • 222200Z AUTO 34006KT 280V030 8000 3200E RA SCT018 BKN024 BKN033 15/14 Q1022
  • 222130Z AUTO 31005KT 270V350 9999 3300E -RA SCT026 BKN034 BKN050 15/14 Q1021
  • 222100Z 33006KT 290V020 9999 -RA FEW014 SCT026 BKN048 16/14 Q1021
  • 222030Z 32008KT 290V020 9999 FEW010 SCT016 BKN045 16/14 Q1021

TAF TAF LEXJ
Valid from the 22 at 21:00 until the 23 at 21:00 UTC


222000Z 2221/2321 27009KT 9000 SCT015 BKN025 TX15/2221Z TN13/2305Z
TEMPO 2221/2306 3000 -RA BKN010
PROB40
TEMPO 2221/2305 1500 RA SHRA BKN005 BKN020TCU
PROB40
TEMPO 2303/2315 27015G25KT
PROB40
TEMPO 2308/2321 3000 RA BKN010
PROB30
TEMPO 2303/2313 SHRA TS SCT030CB



MET'MAP, your aeronautical weather chart ! - Copyright ORBIFLY December 2007 - Disclaimer

ORBIFLY MET'MAP TEAM :

Programming & Development : Alexandra Zaïnal
Concept & original design : Baudouin d'Aumeries
Assistance for programming : Marc-Olivier Méhu
Technical & hardware support : Manuel Goepfert

Contact : metmap@orbifly.com




SOURCES & CREDITS :

   NOAA